createdAt,value
2017-11-14T00:00:36.501Z,99.90
2017-11-14T00:03:04.869Z,99.90
2017-11-14T00:05:33.372Z,99.90
2017-11-14T00:08:01.680Z,99.90
2017-11-14T00:10:29.921Z,99.90
2017-11-14T00:12:58.200Z,99.90
2017-11-14T00:15:26.491Z,99.90
2017-11-14T00:17:54.778Z,99.90
2017-11-14T00:20:23.050Z,99.90
2017-11-14T00:22:51.327Z,99.90
2017-11-14T00:25:19.590Z,99.90
2017-11-14T00:27:48.640Z,99.90
2017-11-14T00:30:19.223Z,99.90
2017-11-14T00:32:47.525Z,99.90
2017-11-14T00:35:15.846Z,99.90
2017-11-14T00:37:44.112Z,99.90
2017-11-14T00:40:12.403Z,99.90
2017-11-14T00:42:41.475Z,99.90
2017-11-14T00:45:09.752Z,99.90
2017-11-14T00:47:38.083Z,99.90
2017-11-14T00:50:06.810Z,99.90
2017-11-14T00:52:35.832Z,99.90
2017-11-14T00:55:04.099Z,99.90
2017-11-14T00:57:33.518Z,99.90
2017-11-14T01:00:01.787Z,99.90
2017-11-14T01:02:30.077Z,99.90
2017-11-14T01:04:58.404Z,99.90
2017-11-14T01:07:26.738Z,99.90
2017-11-14T01:09:55.028Z,99.90
2017-11-14T01:12:24.050Z,99.90
2017-11-14T01:14:52.318Z,99.90
2017-11-14T01:17:20.565Z,99.90
2017-11-14T01:19:49.611Z,99.90
2017-11-14T01:22:18.686Z,99.90
2017-11-14T01:24:48.180Z,99.90
2017-11-14T01:27:17.228Z,99.90
2017-11-14T01:29:45.493Z,99.90
2017-11-14T01:32:14.425Z,99.90
2017-11-14T01:34:43.435Z,99.90
2017-11-14T01:37:11.754Z,99.90
2017-11-14T01:39:39.983Z,99.90
2017-11-14T01:42:09.601Z,99.90
2017-11-14T01:44:38.220Z,99.90
2017-11-14T01:47:06.647Z,99.90
2017-11-14T01:49:34.882Z,99.90
2017-11-14T01:52:03.144Z,99.90
2017-11-14T01:54:31.443Z,99.90
2017-11-14T01:56:59.705Z,99.90
2017-11-14T01:59:27.993Z,99.90
2017-11-14T02:01:56.417Z,99.90
2017-11-14T02:04:24.677Z,99.90
2017-11-14T02:06:52.976Z,99.90
2017-11-14T02:09:22.243Z,99.90
2017-11-14T02:11:50.526Z,99.90
2017-11-14T02:14:19.832Z,99.90
2017-11-14T02:16:48.903Z,99.90
2017-11-14T02:19:17.196Z,99.90
2017-11-14T02:21:45.562Z,99.90
2017-11-14T02:24:13.851Z,99.90
2017-11-14T02:27:02.229Z,99.90
2017-11-14T02:29:30.648Z,99.90
2017-11-14T02:31:58.936Z,99.90
2017-11-14T02:34:27.222Z,99.90
2017-11-14T02:36:55.578Z,99.90
2017-11-14T02:39:23.866Z,99.90
2017-11-14T02:41:52.242Z,99.90
2017-11-14T02:44:20.539Z,99.90
2017-11-14T02:46:48.783Z,99.90
2017-11-14T02:49:17.107Z,99.90
2017-11-14T02:51:45.443Z,99.90
2017-11-14T02:54:13.803Z,99.90
2017-11-14T02:56:42.067Z,99.90
2017-11-14T02:59:10.317Z,99.90
2017-11-14T03:01:38.725Z,99.90
2017-11-14T03:04:08.291Z,99.90
2017-11-14T03:06:36.594Z,99.90
2017-11-14T03:09:05.075Z,99.90
2017-11-14T03:11:33.507Z,99.90
2017-11-14T03:14:01.795Z,99.90
2017-11-14T03:16:30.817Z,99.90
2017-11-14T03:18:59.109Z,99.90
2017-11-14T03:21:27.360Z,99.90
2017-11-14T03:23:55.643Z,99.90
2017-11-14T03:26:23.899Z,99.90
2017-11-14T03:28:52.452Z,99.90
2017-11-14T03:31:20.743Z,99.90
2017-11-14T03:33:49.054Z,99.90
2017-11-14T03:36:18.026Z,99.90
2017-11-14T03:38:47.237Z,99.90
2017-11-14T03:41:15.510Z,99.90
2017-11-14T03:43:43.813Z,99.90
2017-11-14T03:46:12.093Z,99.90
2017-11-14T03:48:41.173Z,99.90
2017-11-14T03:51:09.468Z,99.90
2017-11-14T03:53:39.285Z,99.90
2017-11-14T03:56:07.610Z,99.90
2017-11-14T03:58:36.652Z,99.90
2017-11-14T04:01:04.903Z,99.90
2017-11-14T04:03:33.221Z,99.90
2017-11-14T04:06:01.538Z,99.90
2017-11-14T04:08:29.787Z,99.90
2017-11-14T04:10:58.075Z,99.90
2017-11-14T04:13:27.126Z,99.90
2017-11-14T04:15:55.382Z,99.90
2017-11-14T04:18:23.675Z,99.90
2017-11-14T04:20:52.690Z,99.90
2017-11-14T04:23:20.979Z,99.90
2017-11-14T04:25:49.219Z,99.90
2017-11-14T04:28:17.535Z,99.90
2017-11-14T04:30:45.777Z,99.90
2017-11-14T04:33:14.105Z,99.90
2017-11-14T04:35:42.380Z,99.90
2017-11-14T04:38:10.637Z,99.90
2017-11-14T04:40:39.453Z,99.90
2017-11-14T04:43:07.695Z,99.90
2017-11-14T04:45:35.996Z,99.90
2017-11-14T04:48:04.256Z,99.90
2017-11-14T04:50:33.466Z,99.90
2017-11-14T04:53:01.746Z,99.90
2017-11-14T04:55:30.098Z,99.90
2017-11-14T04:57:58.352Z,99.90
2017-11-14T05:00:27.425Z,99.90
2017-11-14T05:02:55.716Z,99.90
2017-11-14T05:05:24.748Z,99.90
2017-11-14T05:07:53.016Z,99.90
2017-11-14T05:10:21.632Z,99.90
2017-11-14T05:12:49.892Z,99.90
2017-11-14T05:15:18.207Z,99.90
2017-11-14T05:17:47.970Z,99.90
2017-11-14T05:20:16.205Z,99.90
2017-11-14T05:22:45.255Z,99.90
2017-11-14T05:25:13.604Z,99.90
2017-11-14T05:27:43.583Z,99.90
2017-11-14T05:30:11.819Z,99.90
2017-11-14T05:32:40.081Z,99.90
2017-11-14T05:35:08.331Z,99.90
2017-11-14T05:37:36.676Z,99.90
2017-11-14T05:40:06.460Z,99.90
2017-11-14T05:42:34.771Z,99.90
2017-11-14T05:45:03.032Z,99.90
2017-11-14T05:47:31.284Z,99.90
2017-11-14T05:49:59.540Z,99.90
2017-11-14T05:52:28.569Z,99.90
2017-11-14T05:54:57.154Z,99.90
2017-11-14T05:57:25.416Z,99.90
2017-11-14T05:59:53.668Z,99.90
2017-11-14T06:02:22.747Z,99.90
2017-11-14T06:04:51.011Z,99.90
2017-11-14T06:07:19.335Z,99.90
2017-11-14T06:09:48.704Z,99.90
2017-11-14T06:12:16.917Z,99.90
2017-11-14T06:14:45.185Z,99.90
2017-11-14T06:17:14.252Z,99.90
2017-11-14T06:19:42.588Z,99.90
2017-11-14T06:22:10.827Z,99.90
2017-11-14T06:24:39.869Z,99.90
2017-11-14T06:27:08.125Z,99.90
2017-11-14T06:29:36.461Z,99.90
2017-11-14T06:32:04.694Z,99.90
2017-11-14T06:34:34.505Z,99.90
2017-11-14T06:37:02.810Z,99.90
2017-11-14T06:39:31.124Z,99.90
2017-11-14T06:42:01.173Z,99.90
2017-11-14T06:44:29.461Z,99.90
2017-11-14T06:46:57.691Z,99.90
2017-11-14T06:49:26.808Z,99.90
2017-11-14T06:51:55.108Z,99.90
2017-11-14T06:54:23.367Z,99.90
2017-11-14T06:56:52.227Z,99.90
2017-11-14T06:59:20.488Z,99.90
2017-11-14T07:01:48.753Z,99.90
2017-11-14T07:04:17.213Z,99.90
2017-11-14T07:06:46.232Z,99.90
2017-11-14T07:09:14.484Z,99.90
2017-11-14T07:11:42.726Z,99.90
2017-11-14T07:14:11.005Z,99.90
2017-11-14T07:16:39.295Z,99.90
2017-11-14T07:19:08.313Z,99.90
2017-11-14T07:21:36.594Z,99.90
2017-11-14T07:24:05.326Z,99.90
2017-11-14T07:26:33.601Z,99.90
2017-11-14T07:29:01.879Z,99.90
2017-11-14T07:31:30.155Z,99.90
2017-11-14T07:33:59.063Z,99.90
2017-11-14T07:36:27.461Z,99.90
2017-11-14T07:38:56.496Z,99.90
2017-11-14T07:41:24.751Z,99.90
2017-11-14T07:43:52.989Z,99.90
2017-11-14T07:46:22.010Z,99.90
2017-11-14T07:48:51.075Z,99.90
2017-11-14T07:51:19.311Z,99.90
2017-11-14T07:53:47.580Z,99.90
2017-11-14T07:56:15.827Z,99.90
2017-11-14T07:58:45.722Z,99.90
2017-11-14T08:01:13.996Z,99.90
2017-11-14T08:03:42.267Z,99.90
2017-11-14T08:06:11.920Z,99.90
2017-11-14T08:08:40.225Z,99.90
2017-11-14T08:11:09.424Z,99.90
2017-11-14T08:13:37.656Z,99.90
2017-11-14T08:16:06.677Z,99.90
2017-11-14T08:18:35.984Z,99.90
2017-11-14T08:21:04.250Z,99.90
2017-11-14T08:23:33.823Z,99.90
2017-11-14T08:26:02.148Z,99.90
2017-11-14T08:28:30.390Z,99.90
2017-11-14T08:30:59.411Z,99.90
2017-11-14T08:33:27.657Z,99.90
2017-11-14T08:35:56.687Z,99.90
2017-11-14T08:38:25.036Z,99.90
2017-11-14T08:40:54.430Z,99.90
2017-11-14T08:43:22.712Z,99.90
2017-11-14T08:45:50.970Z,99.90
2017-11-14T08:48:19.257Z,99.90
2017-11-14T08:50:47.993Z,99.90
2017-11-14T08:53:16.275Z,99.90
2017-11-14T08:55:44.506Z,99.90
2017-11-14T08:58:13.525Z,99.90
2017-11-14T09:00:41.809Z,99.90
2017-11-14T09:03:10.117Z,99.90
2017-11-14T09:05:38.426Z,99.90
2017-11-14T09:08:06.700Z,99.90
2017-11-14T09:10:35.456Z,99.90
2017-11-14T09:13:03.716Z,99.90
2017-11-14T09:15:32.411Z,99.90
2017-11-14T09:18:01.172Z,99.90
2017-11-14T09:20:30.243Z,99.90
2017-11-14T09:22:58.487Z,99.90
2017-11-14T09:25:26.829Z,99.90
2017-11-14T09:27:55.837Z,99.90
2017-11-14T09:30:24.226Z,99.90
2017-11-14T09:32:52.526Z,99.90
2017-11-14T09:35:21.534Z,99.90
2017-11-14T09:37:50.094Z,99.90
2017-11-14T09:40:18.463Z,99.90
2017-11-14T09:42:46.709Z,99.90
2017-11-14T09:45:16.043Z,99.90
2017-11-14T09:47:44.333Z,99.90
2017-11-14T09:50:12.567Z,99.90
2017-11-14T09:52:41.512Z,99.90
2017-11-14T09:55:09.784Z,99.90
2017-11-14T09:57:38.856Z,99.90
2017-11-14T10:00:07.765Z,99.90
2017-11-14T10:02:36.042Z,99.90
2017-11-14T10:05:04.369Z,99.90
2017-11-14T10:07:32.834Z,99.90
2017-11-14T10:10:01.080Z,99.90
2017-11-14T10:12:29.363Z,99.90
2017-11-14T10:14:57.628Z,99.90
2017-11-14T10:17:25.931Z,99.90
2017-11-14T10:19:54.988Z,99.90
2017-11-14T10:22:23.538Z,99.90
2017-11-14T10:24:52.589Z,99.90
2017-11-14T10:27:20.853Z,99.90
2017-11-14T10:29:49.277Z,99.90
2017-11-14T10:32:18.688Z,99.90
2017-11-14T10:34:46.954Z,99.90
2017-11-14T10:37:16.349Z,99.90
2017-11-14T10:39:44.632Z,99.90
2017-11-14T10:42:12.863Z,99.90
2017-11-14T10:44:41.147Z,99.90
2017-11-14T10:47:10.295Z,99.90
2017-11-14T10:49:38.496Z,99.90
2017-11-14T10:52:06.755Z,99.90
2017-11-14T10:54:35.852Z,99.90
2017-11-14T10:57:04.860Z,99.90
2017-11-14T10:59:33.925Z,99.90
2017-11-14T11:02:02.945Z,99.90
2017-11-14T11:04:33.022Z,99.90
2017-11-14T11:07:02.054Z,99.90
2017-11-14T11:09:31.105Z,99.90
2017-11-14T11:11:59.366Z,99.90
2017-11-14T11:14:27.647Z,99.90
2017-11-14T11:16:55.946Z,99.90
2017-11-14T11:19:24.201Z,99.90
2017-11-14T11:21:53.449Z,99.90
2017-11-14T11:24:22.513Z,99.90
2017-11-14T11:26:53.493Z,99.90
2017-11-14T11:29:23.602Z,99.90
2017-11-14T11:31:51.824Z,99.90
2017-11-14T11:34:20.122Z,99.90
2017-11-14T11:36:49.299Z,99.90
2017-11-14T11:39:17.556Z,99.90
2017-11-14T11:41:46.458Z,99.90
2017-11-14T11:44:14.745Z,99.90
2017-11-14T11:46:43.064Z,99.90
2017-11-14T11:49:11.345Z,99.90
2017-11-14T11:51:40.264Z,99.90
2017-11-14T11:54:08.491Z,99.90
2017-11-14T11:56:38.523Z,99.90
2017-11-14T11:59:06.785Z,99.90
2017-11-14T12:01:36.335Z,99.90
2017-11-14T12:04:07.685Z,99.90
2017-11-14T12:06:36.714Z,99.90
2017-11-14T12:09:04.972Z,99.90
2017-11-14T12:11:34.000Z,99.90
2017-11-14T12:14:04.036Z,99.90
2017-11-14T12:16:32.309Z,99.90
2017-11-14T12:19:00.609Z,99.90
2017-11-14T12:21:30.370Z,99.90
2017-11-14T12:23:58.656Z,99.90
2017-11-14T12:26:26.942Z,99.90
2017-11-14T12:28:55.216Z,99.90
2017-11-14T12:31:23.486Z,99.80
2017-11-14T12:33:52.515Z,99.70
2017-11-14T12:36:20.776Z,99.70
2017-11-14T12:38:49.089Z,99.70
2017-11-14T12:41:17.337Z,99.60
2017-11-14T12:43:45.579Z,99.90
2017-11-14T12:46:13.839Z,99.90
2017-11-14T12:48:49.580Z,99.50
2017-11-14T12:51:18.692Z,99.50
2017-11-14T12:53:46.957Z,99.10
2017-11-14T12:56:15.993Z,99.20
2017-11-14T12:58:44.361Z,99.20
2017-11-14T13:01:14.231Z,99.30
2017-11-14T13:03:42.473Z,99.20
2017-11-14T13:06:10.726Z,99.50
2017-11-14T13:08:39.019Z,99.50
2017-11-14T13:11:07.878Z,98.70
2017-11-14T13:13:36.931Z,99.20
2017-11-14T13:16:05.176Z,99.40
2017-11-14T13:18:33.483Z,99.10
2017-11-14T13:21:01.722Z,99.00
2017-11-14T13:23:30.796Z,98.50
2017-11-14T13:25:59.096Z,98.70
2017-11-14T13:28:27.413Z,98.40
2017-11-14T13:30:55.692Z,98.30
2017-11-14T13:33:26.502Z,98.10
2017-11-14T13:35:55.621Z,98.40
2017-11-14T13:38:23.884Z,98.40
2017-11-14T13:40:52.144Z,98.50
2017-11-14T13:43:20.496Z,99.40
2017-11-14T13:45:49.553Z,99.30
2017-11-14T13:48:17.881Z,99.00
2017-11-14T13:50:46.890Z,99.00
2017-11-14T13:53:15.962Z,98.80
2017-11-14T13:55:45.010Z,98.60
2017-11-14T13:58:13.354Z,98.50
2017-11-14T14:00:41.641Z,98.70
2017-11-14T14:03:10.706Z,98.80
2017-11-14T14:05:38.964Z,98.80
2017-11-14T14:08:07.258Z,98.60
2017-11-14T14:10:35.529Z,98.90
2017-11-14T14:13:03.815Z,99.20
2017-11-14T14:15:32.881Z,99.90
2017-11-14T14:18:01.604Z,99.90
2017-11-14T14:20:29.868Z,99.90
2017-11-14T14:22:58.163Z,99.90
2017-11-14T14:25:26.474Z,99.90
2017-11-14T14:27:56.667Z,99.90
2017-11-14T14:30:26.594Z,99.90
2017-11-14T14:32:54.860Z,99.90
2017-11-14T14:35:23.932Z,99.90
2017-11-14T14:37:52.197Z,99.90
2017-11-14T14:40:20.920Z,99.90
2017-11-14T14:42:49.184Z,99.90
2017-11-14T14:45:19.071Z,99.90
2017-11-14T14:47:47.333Z,99.90
2017-11-14T14:50:16.659Z,99.90
2017-11-14T14:52:44.895Z,99.90
2017-11-14T14:55:13.816Z,99.90
2017-11-14T14:57:42.339Z,99.90
2017-11-14T15:00:10.637Z,99.90
2017-11-14T15:02:40.584Z,99.90
2017-11-14T15:05:09.820Z,99.90
2017-11-14T15:07:38.928Z,99.90
2017-11-14T15:10:07.187Z,99.90
2017-11-14T15:12:35.493Z,99.90
2017-11-14T15:15:03.735Z,99.90
2017-11-14T15:17:33.781Z,99.90
2017-11-14T15:20:02.881Z,99.90
2017-11-14T15:22:32.803Z,99.90
2017-11-14T15:25:02.478Z,99.90
2017-11-14T15:27:30.767Z,99.90
2017-11-14T15:29:59.693Z,99.90
2017-11-14T15:32:28.957Z,99.90
2017-11-14T15:34:58.296Z,99.90
2017-11-14T15:37:27.767Z,99.90
2017-11-14T15:39:57.602Z,99.90
2017-11-14T15:42:27.410Z,99.90
2017-11-14T15:44:56.319Z,99.90
2017-11-14T15:47:24.744Z,99.90
2017-11-14T15:49:52.999Z,99.90
2017-11-14T15:52:23.098Z,99.90
2017-11-14T15:54:52.284Z,99.90
2017-11-14T15:57:21.576Z,99.90
2017-11-14T15:59:49.825Z,99.90
2017-11-14T16:02:18.096Z,99.90
2017-11-14T16:04:47.220Z,99.90
2017-11-14T16:07:15.504Z,99.90
2017-11-14T16:09:43.764Z,99.90
2017-11-14T16:12:12.087Z,99.90
2017-11-14T16:14:42.342Z,99.90
2017-11-14T16:17:10.622Z,99.90
2017-11-14T16:19:39.049Z,99.90
2017-11-14T16:22:08.151Z,99.90
2017-11-14T16:24:36.377Z,99.90
2017-11-14T16:27:07.511Z,99.90
2017-11-14T16:29:35.850Z,99.90
2017-11-14T16:32:04.115Z,99.90
2017-11-14T16:34:33.280Z,99.90
2017-11-14T16:37:01.650Z,99.90
2017-11-14T16:39:30.601Z,99.90
2017-11-14T16:42:00.310Z,99.90
2017-11-14T16:44:28.699Z,99.90
2017-11-14T16:46:57.728Z,99.90
2017-11-14T16:49:26.949Z,99.90
2017-11-14T16:51:57.200Z,99.90
2017-11-14T16:54:26.606Z,99.90
2017-11-14T16:56:55.852Z,99.90
2017-11-14T16:59:24.998Z,99.90
2017-11-14T17:01:53.270Z,99.90
2017-11-14T17:04:22.373Z,99.90
2017-11-14T17:06:50.727Z,99.90
2017-11-14T17:09:19.037Z,99.90
2017-11-14T17:11:48.954Z,99.90
2017-11-14T17:14:17.905Z,99.90
2017-11-14T17:16:47.057Z,99.90
2017-11-14T17:19:15.354Z,99.90
2017-11-14T17:21:43.641Z,99.90
2017-11-14T17:24:15.578Z,99.90
2017-11-14T17:26:43.895Z,99.90
2017-11-14T17:29:13.684Z,99.90
2017-11-14T17:31:42.721Z,99.90
2017-11-14T17:34:13.822Z,99.90
2017-11-14T17:36:44.366Z,99.90
2017-11-14T17:39:14.088Z,99.90
2017-11-14T17:41:44.039Z,99.90
2017-11-14T17:44:13.097Z,99.90
2017-11-14T17:46:42.829Z,99.90
2017-11-14T17:49:11.400Z,99.90
2017-11-14T17:51:39.820Z,99.90
2017-11-14T17:54:09.892Z,99.90
2017-11-14T17:56:38.533Z,99.90
2017-11-14T17:59:06.976Z,99.90
2017-11-14T18:01:36.705Z,99.90
2017-11-14T18:04:05.303Z,99.90
2017-11-14T18:06:33.996Z,99.90
2017-11-14T18:09:02.782Z,99.90
2017-11-14T18:11:32.722Z,99.90
2017-11-14T18:14:02.442Z,99.90
2017-11-14T18:16:31.606Z,99.90
2017-11-14T18:19:00.703Z,99.90
2017-11-14T18:21:30.801Z,99.90
2017-11-14T18:24:00.228Z,99.90
2017-11-14T18:26:29.160Z,99.90
2017-11-14T18:28:58.567Z,99.90
2017-11-14T18:31:27.520Z,99.90
2017-11-14T18:33:56.581Z,99.90
2017-11-14T18:36:25.729Z,99.90
2017-11-14T18:38:54.068Z,99.90
2017-11-14T18:41:24.424Z,99.90
2017-11-14T18:43:56.697Z,99.90
2017-11-14T18:46:25.893Z,99.90
2017-11-14T18:48:54.172Z,99.90
2017-11-14T18:51:22.429Z,99.90
2017-11-14T18:53:52.334Z,99.90
2017-11-14T18:56:20.973Z,99.90
2017-11-14T18:58:49.974Z,99.90
2017-11-14T19:01:19.065Z,99.90
2017-11-14T19:03:49.068Z,99.90
2017-11-14T19:06:17.989Z,99.90
2017-11-14T19:08:46.278Z,99.90
2017-11-14T19:11:14.810Z,99.90
2017-11-14T19:13:43.109Z,99.90
2017-11-14T19:16:12.236Z,99.90
2017-11-14T19:18:42.219Z,99.90
2017-11-14T19:21:11.111Z,99.90
2017-11-14T19:23:42.066Z,99.90
2017-11-14T19:26:11.088Z,99.90
2017-11-14T19:28:39.464Z,99.90
2017-11-14T19:31:08.554Z,99.90
2017-11-14T19:33:37.809Z,99.90
2017-11-14T19:36:07.595Z,99.90
2017-11-14T19:38:37.138Z,99.90
2017-11-14T19:41:06.532Z,99.90
2017-11-14T19:43:35.684Z,99.90
2017-11-14T19:46:05.249Z,99.90
2017-11-14T19:48:34.304Z,99.90
2017-11-14T19:51:04.113Z,99.90
2017-11-14T19:53:32.523Z,99.90
2017-11-14T19:56:01.210Z,99.90
2017-11-14T19:58:29.528Z,99.90
2017-11-14T20:00:57.888Z,99.90
2017-11-14T20:03:26.283Z,99.90
2017-11-14T20:05:55.389Z,99.90
2017-11-14T20:08:24.948Z,99.90
2017-11-14T20:10:54.493Z,99.90
2017-11-14T20:13:23.153Z,99.90
2017-11-14T20:15:52.547Z,99.90
2017-11-14T20:18:21.764Z,99.90
2017-11-14T20:20:51.686Z,99.90
2017-11-14T20:23:21.685Z,99.90
2017-11-14T20:25:51.699Z,99.90
2017-11-14T20:28:20.079Z,99.90
2017-11-14T20:30:53.478Z,99.90
2017-11-14T20:33:24.319Z,99.90
2017-11-14T20:35:54.602Z,99.90
2017-11-14T20:38:23.041Z,99.90
2017-11-14T20:40:52.526Z,99.90
2017-11-14T20:43:22.037Z,99.90
2017-11-14T20:45:50.619Z,99.90
2017-11-14T20:48:19.205Z,99.90
2017-11-14T20:50:47.572Z,99.90
2017-11-14T20:53:16.076Z,99.90
2017-11-14T20:55:46.061Z,99.90
2017-11-14T20:58:14.371Z,99.90
2017-11-14T21:00:44.186Z,99.90
2017-11-14T21:03:12.566Z,99.90
2017-11-14T21:05:40.976Z,99.90
2017-11-14T21:08:09.974Z,99.90
2017-11-14T21:10:39.010Z,99.90
2017-11-14T21:13:07.366Z,99.90
2017-11-14T21:15:35.672Z,99.90
2017-11-14T21:18:04.494Z,99.90
2017-11-14T21:20:33.542Z,99.90
2017-11-14T21:23:01.860Z,99.90
2017-11-14T21:25:30.964Z,99.90
2017-11-14T21:27:59.442Z,99.90
2017-11-14T21:30:28.491Z,99.90
2017-11-14T21:32:57.105Z,99.90
2017-11-14T21:35:26.220Z,99.90
2017-11-14T21:37:55.115Z,99.90
2017-11-14T21:40:25.084Z,99.90
2017-11-14T21:42:55.689Z,99.90
2017-11-14T21:45:23.943Z,99.90
2017-11-14T21:47:52.753Z,99.90
2017-11-14T21:50:22.637Z,99.90
2017-11-14T21:52:52.187Z,99.90
2017-11-14T21:55:21.306Z,99.90
2017-11-14T21:57:50.441Z,99.90
2017-11-14T22:00:18.874Z,99.90
2017-11-14T22:02:47.268Z,99.90
2017-11-14T22:05:15.579Z,99.90
2017-11-14T22:07:44.436Z,99.90
2017-11-14T22:10:12.686Z,99.90
2017-11-14T22:12:40.966Z,99.90
2017-11-14T22:15:09.278Z,99.90
2017-11-14T22:17:38.519Z,99.90
2017-11-14T22:20:07.668Z,99.90
2017-11-14T22:22:35.967Z,99.90
2017-11-14T22:25:04.232Z,99.90
2017-11-14T22:27:32.507Z,99.90
2017-11-14T22:30:01.580Z,99.90
2017-11-14T22:32:29.852Z,99.90
2017-11-14T22:34:58.201Z,99.90
2017-11-14T22:37:27.224Z,99.90
2017-11-14T22:39:55.493Z,99.90
2017-11-14T22:42:24.154Z,99.90
2017-11-14T22:44:52.651Z,99.90
2017-11-14T22:47:22.596Z,99.90
2017-11-14T22:49:50.872Z,99.90
2017-11-14T22:52:20.098Z,99.90
2017-11-14T22:54:48.393Z,99.90
2017-11-14T22:57:17.775Z,99.90
2017-11-14T22:59:46.040Z,99.90
2017-11-14T23:02:15.191Z,99.90
2017-11-14T23:04:44.320Z,99.90
2017-11-14T23:07:13.518Z,99.90
2017-11-14T23:09:41.799Z,99.90
2017-11-14T23:12:11.946Z,99.90
2017-11-14T23:14:40.268Z,99.90
2017-11-14T23:17:09.322Z,99.90
2017-11-14T23:19:37.630Z,99.90
2017-11-14T23:22:05.866Z,99.90
2017-11-14T23:24:34.547Z,99.90
2017-11-14T23:27:05.271Z,99.90
2017-11-14T23:29:34.110Z,99.90
2017-11-14T23:32:03.243Z,99.90
2017-11-14T23:34:32.554Z,99.90
2017-11-14T23:37:04.851Z,99.90
2017-11-14T23:39:33.905Z,99.90
2017-11-14T23:42:03.618Z,99.90
2017-11-14T23:44:32.837Z,99.90
2017-11-14T23:47:01.871Z,99.90
2017-11-14T23:49:32.688Z,99.90
2017-11-14T23:52:00.976Z,99.90
2017-11-14T23:54:30.550Z,99.90
2017-11-14T23:56:59.906Z,99.90
2017-11-14T23:59:28.135Z,99.90
